createdAt,value
2023-08-17T00:02:20.777Z,101720.38
2023-08-17T00:05:09.932Z,101719.78
2023-08-17T00:07:55.453Z,101713.56
2023-08-17T00:10:40.984Z,101709.81
2023-08-17T00:13:26.446Z,101712.63
2023-08-17T00:16:11.774Z,101706.81
2023-08-17T00:18:57.382Z,101707.78
2023-08-17T00:21:43.222Z,101699.84
2023-08-17T00:24:28.805Z,101705.25
2023-08-17T00:27:14.324Z,101707.38
2023-08-17T00:29:59.658Z,101706.19
2023-08-17T00:32:45.302Z,101702.69
2023-08-17T00:35:30.889Z,101702.47
2023-08-17T00:38:16.486Z,101695.53
2023-08-17T00:41:02.181Z,101685.94
2023-08-17T00:43:47.685Z,101683.81
2023-08-17T00:46:33.762Z,101686.63
2023-08-17T00:49:19.237Z,101680.75
2023-08-17T00:52:07.096Z,101675.06
2023-08-17T00:54:52.858Z,101666.41
2023-08-17T00:57:38.776Z,101661.81
2023-08-17T01:00:27.788Z,101672.00
2023-08-17T01:03:14.270Z,101661.38
2023-08-17T01:06:00.190Z,101661.00
2023-08-17T01:08:46.231Z,101659.81
2023-08-17T01:11:40.119Z,101667.31
2023-08-17T01:14:44.551Z,101673.19
2023-08-17T01:17:39.546Z,101669.84
2023-08-17T01:20:26.001Z,101683.44
2023-08-17T01:23:11.237Z,101679.53
2023-08-17T01:25:58.520Z,101672.78
2023-08-17T01:28:46.714Z,101670.19
2023-08-17T01:31:41.774Z,101670.66
2023-08-17T01:34:30.646Z,101669.75
2023-08-17T01:37:21.849Z,101671.44
2023-08-17T01:40:10.426Z,101669.91
2023-08-17T01:42:57.040Z,101666.13
2023-08-17T01:48:28.032Z,101670.25
2023-08-17T01:51:19.864Z,101670.19
2023-08-17T01:54:05.430Z,101671.03
2023-08-17T01:56:51.002Z,101665.84
2023-08-17T01:59:36.535Z,101661.44
2023-08-17T02:02:22.762Z,101670.13
2023-08-17T02:05:09.312Z,101668.56
2023-08-17T02:07:54.709Z,101674.56
2023-08-17T02:10:40.164Z,101678.72
2023-08-17T02:13:25.853Z,101669.75
2023-08-17T02:16:12.261Z,101675.75
2023-08-17T02:18:57.688Z,101677.91
2023-08-17T02:21:43.239Z,101674.28
2023-08-17T02:24:29.092Z,101671.25
2023-08-17T02:27:14.846Z,101669.16
2023-08-17T02:30:00.446Z,101672.34
2023-08-17T02:32:45.953Z,101680.00
2023-08-17T02:35:31.287Z,101679.44
2023-08-17T02:38:16.785Z,101677.81
2023-08-17T02:41:02.263Z,101681.78
2023-08-17T02:43:47.643Z,101693.72
2023-08-17T02:46:33.121Z,101715.22
2023-08-17T02:49:19.694Z,101928.25
2023-08-17T02:52:05.702Z,102269.88
2023-08-17T02:54:51.405Z,102424.13
2023-08-17T02:57:37.041Z,102585.53
2023-08-17T03:00:22.860Z,102803.25
2023-08-17T03:03:08.509Z,103229.56
2023-08-17T03:05:54.254Z,103417.47
2023-08-17T03:08:39.757Z,102899.31
2023-08-17T03:11:25.130Z,102828.75
2023-08-17T03:14:10.865Z,102983.88
2023-08-17T03:16:56.431Z,102671.66
